Time;durP1;ratioP1;P1;durP2;ratioP2;P2;SDS_P1;SDS_P2;PMS_P1;PMS_P2;Temp;Humidity;BMP_temperature;BMP_pressure;BME280_temperature;BME280_humidity;BME280_pressure;Samples;Min_cycle;Max_cycle;Signal;HPM_P1;HPM_P2
2021/07/17 00:00:28;;;;;;;7.45;5.95;;;;;;;21.74;58.63;93012.19;5091322;28;20368;-61
2021/07/17 00:02:54;;;;;;;8.80;6.43;;;;;;;21.69;59.05;93011.28;5090887;28;20024;-59
2021/07/17 00:05:20;;;;;;;7.35;6.57;;;;;;;21.57;59.72;93004.38;5072829;28;20067;-59
2021/07/17 00:07:46;;;;;;;7.88;6.65;;;;;;;21.63;59.28;93008.19;5091120;28;20024;-59
2021/07/17 00:10:13;;;;;;;8.80;7.13;;;;;;;21.67;59.49;93007.63;5090843;28;20026;-60
2021/07/17 00:12:38;;;;;;;9.30;7.28;;;;;;;21.63;59.43;93008.19;5090751;28;20060;-59
2021/07/17 00:15:04;;;;;;;8.38;6.43;;;;;;;21.54;59.83;93002.81;5090971;28;20058;-63
2021/07/17 00:17:30;;;;;;;6.78;5.97;;;;;;;21.18;60.20;92987.06;5083434;28;20024;-62
2021/07/17 00:19:57;;;;;;;7.22;6.03;;;;;;;21.36;59.89;93005.50;5070460;28;20491;-61
2021/07/17 00:22:22;;;;;;;8.52;7.53;;;;;;;21.40;59.93;93000.06;5070541;28;20020;-61
2021/07/17 00:24:48;;;;;;;9.55;7.18;;;;;;;21.33;60.40;93003.94;5078117;28;20662;-61
2021/07/17 00:27:13;;;;;;;7.85;7.03;;;;;;;21.11;60.06;92995.19;5090309;28;20019;-61
2021/07/17 00:29:40;;;;;;;7.22;6.63;;;;;;;21.10;60.16;93007.06;5090525;28;20521;-61
2021/07/17 00:32:06;;;;;;;12.18;7.57;;;;;;;21.14;60.53;92999.56;5089061;28;20114;-61
2021/07/17 00:34:32;;;;;;;9.38;7.20;;;;;;;20.80;61.08;93006.28;5072538;28;20024;-61
2021/07/17 00:36:57;;;;;;;7.38;6.75;;;;;;;20.96;61.06;92998.63;5090595;28;20453;-61
2021/07/17 00:39:22;;;;;;;8.60;7.40;;;;;;;20.92;61.18;92995.66;5090571;28;20016;-61
2021/07/17 00:41:48;;;;;;;8.20;7.40;;;;;;;20.87;61.36;93010.84;5090655;28;20020;-61
2021/07/17 00:44:13;;;;;;;7.47;6.65;;;;;;;20.86;61.81;93006.56;5090560;28;20515;-61
2021/07/17 00:46:39;;;;;;;8.43;7.18;;;;;;;20.71;61.60;92993.22;5090603;28;20052;-61
2021/07/17 00:49:07;;;;;;;8.63;6.47;;;;;;;20.69;62.01;92998.72;5072120;28;20489;-62
2021/07/17 00:51:33;;;;;;;7.60;6.80;;;;;;;20.59;61.68;93001.03;5090275;28;20115;-61
2021/07/17 00:54:00;;;;;;;6.75;6.25;;;;;;;20.38;62.27;92995.75;5090265;28;20126;-61
2021/07/17 00:56:26;;;;;;;7.72;7.03;;;;;;;20.54;61.50;92995.84;5072432;28;20051;-60
2021/07/17 00:58:58;;;;;;;9.60;6.65;;;;;;;20.54;61.54;93002.19;5071108;28;20048;-59
2021/07/17 01:01:25;;;;;;;6.63;6.03;;;;;;;20.49;61.76;93003.31;5072669;28;20028;-59
2021/07/17 01:03:50;;;;;;;9.00;6.63;;;;;;;20.28;62.44;93003.66;5072113;28;20032;-59
2021/07/17 01:06:16;;;;;;;10.38;7.70;;;;;;;20.35;62.38;92997.00;5068159;28;20048;-59
2021/07/17 01:08:41;;;;;;;7.32;6.60;;;;;;;20.37;62.26;93005.53;5088671;28;20032;-62
2021/07/17 01:11:06;;;;;;;7.28;6.68;;;;;;;20.29;62.13;93008.63;5089682;28;20024;-61
2021/07/17 01:13:32;;;;;;;8.20;6.93;;;;;;;20.11;62.06;93007.69;5089942;28;20027;-60
2021/07/17 01:15:57;;;;;;;9.50;7.15;;;;;;;20.21;62.12;93007.47;5089880;28;20069;-62
2021/07/17 01:18:23;;;;;;;8.70;7.40;;;;;;;20.14;62.18;93002.91;5089507;28;20036;-59
2021/07/17 01:20:49;;;;;;;7.43;6.80;;;;;;;20.02;62.33;93000.19;5089913;28;20028;-59
2021/07/17 01:23:14;;;;;;;7.18;6.57;;;;;;;19.99;62.12;92984.63;5067781;28;20028;-59
2021/07/17 01:25:40;;;;;;;9.40;6.90;;;;;;;20.02;62.63;92982.66;5063040;28;20032;-60
2021/07/17 01:28:05;;;;;;;8.75;7.18;;;;;;;19.85;63.50;92986.69;5069326;28;20112;-61
2021/07/17 01:30:33;;;;;;;17.10;7.50;;;;;;;19.83;63.14;92983.78;5069333;28;20032;-62
2021/07/17 01:32:59;;;;;;;8.95;8.02;;;;;;;19.87;62.84;92989.59;5069566;28;20029;-62
2021/07/17 01:35:25;;;;;;;7.88;6.50;;;;;;;19.87;62.65;92983.25;5078111;28;20032;-62
2021/07/17 01:37:51;;;;;;;7.57;6.43;;;;;;;19.84;61.56;92978.91;5089301;28;20119;-62
2021/07/17 01:40:20;;;;;;;7.32;6.63;;;;;;;19.81;62.10;92975.28;5089404;28;20035;-61
2021/07/17 01:42:47;;;;;;;6.25;5.75;;;;;;;19.85;62.14;92974.75;5089686;28;20493;-61
2021/07/17 01:45:21;;;;;;;7.07;6.07;;;;;;;19.74;62.26;92970.69;5088200;28;20039;-61
2021/07/17 01:47:46;;;;;;;6.68;6.07;;;;;;;19.74;61.93;92975.56;5069822;28;20522;-62
2021/07/17 01:50:12;;;;;;;25.10;7.25;;;;;;;19.69;62.30;92974.63;5069819;28;20056;-60
2021/07/17 01:52:37;;;;;;;9.15;6.80;;;;;;;19.45;62.85;92976.13;5088467;28;20113;-60
2021/07/17 01:55:07;;;;;;;6.35;5.82;;;;;;;19.55;61.01;92980.22;5088255;28;20419;-63
2021/07/17 01:57:33;;;;;;;7.35;6.10;;;;;;;19.41;61.86;92981.53;5087416;28;20063;-63
2021/07/17 01:59:58;;;;;;;6.93;6.32;;;;;;;19.38;61.65;92974.38;5086013;28;20564;-66
2021/07/17 02:02:24;;;;;;;7.10;6.20;;;;;;;19.01;62.29;92977.22;5093064;28;20035;-64
2021/07/17 02:04:49;;;;;;;8.50;6.40;;;;;;;19.23;62.67;92981.22;5098741;28;20039;-64
2021/07/17 02:07:15;;;;;;;6.75;6.22;;;;;;;19.17;62.71;92988.56;5088503;28;20031;-63
2021/07/17 02:09:40;;;;;;;8.48;6.38;;;;;;;19.11;62.66;92991.78;5089016;28;20032;-62
2021/07/17 02:12:06;;;;;;;7.35;6.65;;;;;;;19.00;63.02;92995.34;5101513;28;20524;-64
2021/07/17 02:14:42;;;;;;;10.18;6.68;;;;;;;19.05;63.07;93001.91;5092648;28;20543;-64
2021/07/17 02:17:10;;;;;;;7.65;6.85;;;;;;;19.04;63.40;92992.03;5091970;28;20496;-64
2021/07/17 02:19:35;;;;;;;9.18;6.75;;;;;;;18.87;64.23;92993.22;5092864;28;20032;-62
2021/07/17 02:22:02;;;;;;;7.60;6.78;;;;;;;19.00;63.51;92992.56;5092425;28;20466;-61
2021/07/17 02:24:28;;;;;;;7.68;6.97;;;;;;;19.03;63.73;92994.13;5091976;28;20137;-61
2021/07/17 02:26:53;;;;;;;6.35;5.85;;;;;;;18.91;61.64;92996.22;5092637;28;20586;-61
2021/07/17 02:29:19;;;;;;;6.40;5.80;;;;;;;18.87;62.49;92987.63;5092677;28;20020;-60
2021/07/17 02:31:44;;;;;;;8.52;6.10;;;;;;;18.73;63.37;92981.25;5092234;28;20032;-61
2021/07/17 02:34:12;;;;;;;7.90;6.15;;;;;;;18.50;63.41;92937.31;5092241;28;20103;-61
2021/07/17 02:36:37;;;;;;;7.38;6.68;;;;;;;18.85;63.40;92977.06;5092123;28;20051;-61
2021/07/17 02:39:05;;;;;;;7.10;6.28;;;;;;;18.56;63.78;92978.88;5092021;28;20112;-61
2021/07/17 02:41:30;;;;;;;7.00;6.40;;;;;;;18.63;63.31;92972.25;5093608;28;20660;-61
2021/07/17 02:43:56;;;;;;;6.13;5.32;;;;;;;18.56;63.21;92974.00;5097338;28;20034;-61
2021/07/17 02:46:21;;;;;;;9.55;6.82;;;;;;;18.36;63.87;92944.88;5091594;28;20027;-61
2021/07/17 02:48:47;;;;;;;7.05;5.80;;;;;;;18.52;64.10;92961.84;5091018;28;20115;-61
2021/07/17 02:51:12;;;;;;;7.10;6.50;;;;;;;18.48;64.24;92945.59;5091340;28;20023;-62
2021/07/17 02:53:39;;;;;;;8.18;6.82;;;;;;;18.62;64.13;92960.38;5091196;28;20472;-61
2021/07/17 02:56:04;;;;;;;7.10;6.50;;;;;;;18.59;64.26;92946.88;5092269;28;20024;-62
2021/07/17 02:58:30;;;;;;;8.18;6.70;;;;;;;18.60;64.23;92951.84;5092011;28;20055;-66
2021/07/17 03:00:56;;;;;;;8.93;6.80;;;;;;;18.39;64.72;92951.28;5091367;28;20027;-66
2021/07/17 03:03:22;;;;;;;14.45;6.45;;;;;;;18.32;64.83;92949.50;5091087;28;20564;-63
2021/07/17 03:05:48;;;;;;;11.13;6.45;;;;;;;18.44;63.98;92952.97;5091014;28;20038;-61
2021/07/17 03:08:15;;;;;;;9.13;6.88;;;;;;;18.21;64.29;92948.19;5090933;28;20012;-60
2021/07/17 03:10:42;;;;;;;7.20;5.88;;;;;;;18.23;64.32;92958.75;5090964;28;20412;-63
2021/07/17 03:13:07;;;;;;;9.45;6.38;;;;;;;18.30;64.81;92963.38;5091624;28;20150;-63
2021/07/17 03:15:33;;;;;;;6.90;6.20;;;;;;;18.39;64.79;92962.47;5091234;28;20401;-63
2021/07/17 03:17:58;;;;;;;7.65;6.97;;;;;;;18.24;64.55;92955.34;5091882;28;20032;-64
2021/07/17 03:20:24;;;;;;;6.82;5.50;;;;;;;18.23;63.53;92967.13;5092093;28;20493;-65
2021/07/17 03:22:49;;;;;;;8.05;6.35;;;;;;;18.12;64.13;92963.03;5090822;28;20048;-61
2021/07/17 03:25:15;;;;;;;6.38;5.78;;;;;;;17.98;64.31;92965.72;5090565;28;20024;-63
2021/07/17 03:27:40;;;;;;;7.03;6.40;;;;;;;17.90;64.42;92964.50;5090981;28;20477;-64
2021/07/17 03:30:06;;;;;;;5.97;5.47;;;;;;;18.04;63.57;92973.75;5090825;28;20034;-64
2021/07/17 03:32:32;;;;;;;8.70;5.45;;;;;;;18.02;62.61;92965.22;5090123;28;20817;-64
2021/07/17 03:34:58;;;;;;;6.95;5.28;;;;;;;17.99;62.38;92975.56;5090555;28;20112;-64
2021/07/17 03:37:23;;;;;;;6.05;5.45;;;;;;;18.04;62.16;92970.94;5090724;28;20020;-64
2021/07/17 03:39:49;;;;;;;5.97;5.35;;;;;;;18.00;62.38;92974.22;5088262;28;20046;-63
2021/07/17 03:42:15;;;;;;;7.40;5.68;;;;;;;18.00;63.03;92973.47;5090909;28;20028;-65
2021/07/17 03:44:40;;;;;;;5.88;5.25;;;;;;;17.95;63.19;92978.09;5090549;28;20024;-65
2021/07/17 03:47:06;;;;;;;6.47;5.82;;;;;;;17.92;63.60;92970.94;5090245;28;20028;-64
2021/07/17 03:49:31;;;;;;;6.40;5.80;;;;;;;17.90;63.74;92964.50;5090670;28;20028;-64
2021/07/17 03:51:57;;;;;;;7.55;6.03;;;;;;;17.95;64.08;92969.00;5090375;28;20024;-63
2021/07/17 03:54:22;;;;;;;11.05;5.55;;;;;;;18.05;64.19;92972.38;5090380;28;20547;-63
2021/07/17 03:56:47;;;;;;;9.02;6.28;;;;;;;17.94;64.01;92973.88;5090441;28;20024;-63
2021/07/17 03:59:13;;;;;;;8.32;5.97;;;;;;;17.99;64.21;92969.97;5089794;28;20044;-66
2021/07/17 04:01:40;;;;;;;7.70;6.80;;;;;;;18.04;64.43;92974.44;5089907;28;20051;-64
2021/07/17 04:04:07;;;;;;;10.15;6.85;;;;;;;18.03;64.07;92964.63;5090001;28;20028;-65
2021/07/17 04:06:35;;;;;;;11.23;7.18;;;;;;;18.01;64.74;92972.88;5090280;28;20020;-65
2021/07/17 04:09:01;;;;;;;13.57;6.57;;;;;;;18.14;65.03;92969.47;5090019;28;20032;-60
2021/07/17 04:11:27;;;;;;;8.88;7.28;;;;;;;18.14;65.43;92969.47;5089859;28;20024;-66
2021/07/17 04:13:52;;;;;;;8.40;7.50;;;;;;;18.14;64.87;92979.91;5090058;28;20492;-65
2021/07/17 04:16:17;;;;;;;7.85;6.00;;;;;;;18.08;64.48;92973.97;5089768;28;20485;-67
2021/07/17 04:18:43;;;;;;;6.30;5.70;;;;;;;18.17;64.60;92968.22;5089522;28;20024;-66
2021/07/17 04:21:12;;;;;;;6.45;5.90;;;;;;;18.22;64.27;92968.47;5089796;28;20031;-60
2021/07/17 04:23:38;;;;;;;13.75;6.70;;;;;;;18.27;64.48;92968.09;5089491;28;20024;-62
2021/07/17 04:26:04;;;;;;;13.00;6.47;;;;;;;18.03;65.56;92966.69;5089078;28;20035;-61
2021/07/17 04:28:29;;;;;;;6.50;5.90;;;;;;;18.09;65.77;92975.41;5087010;28;20020;-61
2021/07/17 04:30:55;;;;;;;6.55;5.85;;;;;;;18.30;65.33;92975.25;5089257;28;20032;-61
2021/07/17 04:33:20;;;;;;;7.25;5.55;;;;;;;18.41;64.71;92971.00;5090040;28;20031;-61
2021/07/17 04:35:46;;;;;;;7.20;6.50;;;;;;;18.45;65.15;92974.03;5090219;28;20417;-61
2021/07/17 04:38:11;;;;;;;7.43;5.70;;;;;;;18.48;64.61;92967.94;5072167;28;20108;-61
2021/07/17 04:40:37;;;;;;;10.43;5.82;;;;;;;18.47;65.22;92968.56;5090234;28;20024;-60
2021/07/17 04:43:02;;;;;;;11.95;6.28;;;;;;;18.61;64.86;92972.16;5089706;28;20036;-61
2021/07/17 04:45:28;;;;;;;7.50;6.78;;;;;;;18.65;64.96;92964.72;5089902;28;20020;-65
2021/07/17 04:47:53;;;;;;;17.02;6.93;;;;;;;18.52;65.16;92961.84;5089737;28;20032;-65
2021/07/17 04:50:19;;;;;;;34.97;7.63;;;;;;;18.55;65.71;92964.16;5089900;28;20032;-65
2021/07/17 04:52:45;;;;;;;13.13;6.68;;;;;;;18.67;64.79;92964.09;5089763;28;20032;-64
2021/07/17 04:55:11;;;;;;;12.48;6.90;;;;;;;18.81;64.71;92971.25;5089831;28;20512;-65
2021/07/17 04:57:37;;;;;;;9.68;6.32;;;;;;;18.83;64.86;92962.22;5089752;28;20040;-64
2021/07/17 05:23:55;;;;;;;9.07;8.13;;;;;;;20.20;62.78;92955.56;5046126;28;20623;-60
2021/07/17 05:26:20;;;;;;;10.98;7.78;;;;;;;20.16;62.12;92958.16;5046197;28;20120;-61
2021/07/17 05:28:46;;;;;;;8.02;6.57;;;;;;;20.14;61.16;92960.88;5046422;28;20136;-64
2021/07/17 05:31:11;;;;;;;9.65;7.50;;;;;;;20.14;62.79;92955.97;5046350;28;20021;-62
2021/07/17 05:33:37;;;;;;;9.15;7.75;;;;;;;20.14;61.77;92955.25;5046161;28;20461;-63
2021/07/17 05:36:02;;;;;;;8.30;6.80;;;;;;;20.17;62.83;92954.72;5045994;28;20024;-62
2021/07/17 05:38:28;;;;;;;8.93;6.40;;;;;;;20.18;62.60;92953.38;5046101;28;20047;-63
2021/07/17 05:40:53;;;;;;;6.95;5.70;;;;;;;20.11;60.93;92951.63;5045319;28;20083;-66
2021/07/17 05:43:18;;;;;;;9.23;6.78;;;;;;;20.23;62.16;92948.72;5045607;28;20429;-65
2021/07/17 05:45:44;;;;;;;7.10;6.35;;;;;;;20.33;60.27;92949.97;5045158;28;20056;-64
2021/07/17 05:48:09;;;;;;;10.25;6.28;;;;;;;20.42;61.29;92947.56;5045789;28;20032;-65
2021/07/17 05:50:35;;;;;;;6.70;5.63;;;;;;;20.50;59.86;92945.16;5045644;28;20506;-66
2021/07/17 05:53:08;;;;;;;8.13;5.43;;;;;;;20.48;56.41;92926.16;5045778;28;20482;-65
2021/07/17 05:55:33;;;;;;;4.93;4.53;;;;;;;20.66;55.90;92943.16;5045639;28;20105;-65
2021/07/17 05:57:59;;;;;;;20.58;5.43;;;;;;;20.69;57.01;92948.22;5046090;28;20104;-66
2021/07/17 06:00:24;;;;;;;15.48;5.65;;;;;;;20.74;57.61;92940.72;5045982;28;20558;-67
2021/07/17 06:02:50;;;;;;;8.45;5.20;;;;;;;20.83;58.24;92942.59;5045915;28;20697;-66
2021/07/17 06:05:15;;;;;;;28.85;6.38;;;;;;;20.88;56.79;92944.94;5045810;28;20410;-65
2021/07/17 06:07:41;;;;;;;13.00;5.55;;;;;;;20.96;56.46;92942.50;5045385;28;20761;-66
2021/07/17 06:10:06;;;;;;;6.97;5.03;;;;;;;21.05;56.32;92946.47;5045730;28;20033;-63
2021/07/17 06:12:32;;;;;;;8.70;5.38;;;;;;;21.14;56.80;92942.69;5045991;28;20078;-63
2021/07/17 06:14:58;;;;;;;7.30;5.32;;;;;;;21.22;56.81;92939.53;5045655;28;20076;-65
2021/07/17 06:17:23;;;;;;;13.88;5.30;;;;;;;21.29;56.79;92941.28;5041714;28;20449;-64
2021/07/17 06:19:49;;;;;;;14.05;5.57;;;;;;;21.24;55.49;92925.59;5031093;28;20025;-63
2021/07/17 06:22:15;;;;;;;18.77;5.97;;;;;;;21.39;56.97;92936.84;5031897;28;20041;-67
2021/07/17 06:24:41;;;;;;;5.85;5.00;;;;;;;21.45;54.92;92930.75;5032452;28;20084;-67
2021/07/17 06:27:07;;;;;;;26.25;6.95;;;;;;;21.50;54.73;92933.13;5032240;28;20506;-65
2021/07/17 06:29:33;;;;;;;8.48;4.68;;;;;;;21.57;53.01;92931.34;5032254;28;20518;-67
2021/07/17 06:31:59;;;;;;;7.00;4.70;;;;;;;21.71;54.51;92931.97;5032020;28;20029;-67
2021/07/17 06:34:24;;;;;;;9.60;4.95;;;;;;;21.77;54.24;92929.41;5031846;28;20025;-64
2021/07/17 06:36:50;;;;;;;5.75;4.30;;;;;;;21.74;53.54;92911.03;5031904;28;20021;-62
2021/07/17 06:39:16;;;;;;;8.88;4.25;;;;;;;21.95;53.41;92929.53;5031801;28;20029;-62
2021/07/17 06:41:41;;;;;;;8.43;4.70;;;;;;;22.04;54.34;92920.81;5032077;28;20018;-63
2021/07/17 06:44:07;;;;;;;7.55;4.50;;;;;;;22.10;52.35;92923.16;5031800;28;20077;-62
2021/07/17 06:46:33;;;;;;;11.93;4.50;;;;;;;22.30;48.07;92919.13;5031527;28;20426;-62
2021/07/17 06:48:58;;;;;;;12.20;4.13;;;;;;;22.37;49.97;92918.00;5031971;28;20060;-62
2021/07/17 06:51:24;;;;;;;6.85;3.70;;;;;;;22.47;47.27;92914.88;5031598;28;20072;-61
2021/07/17 06:53:49;;;;;;;7.63;3.92;;;;;;;22.69;48.64;92923.56;5031764;28;20063;-65
2021/07/17 06:56:15;;;;;;;5.85;3.42;;;;;;;22.87;45.24;92922.19;5031729;28;20021;-58
2021/07/17 06:58:42;;;;;;;9.75;3.13;;;;;;;22.84;44.54;92900.25;5030954;28;20033;-63
2021/07/17 07:01:07;;;;;;;4.43;3.15;;;;;;;23.13;44.41;92909.16;5030179;28;20025;-65
2021/07/17 07:03:32;;;;;;;6.03;4.18;;;;;;;23.25;43.40;92903.28;5028845;28;20032;-64
2021/07/17 07:05:58;;;;;;;13.45;4.15;;;;;;;23.28;45.39;92899.19;5029662;28;20021;-64
2021/07/17 07:08:24;;;;;;;4.07;3.40;;;;;;;23.18;43.62;92891.06;5029368;28;20095;-64
2021/07/17 07:10:49;;;;;;;5.03;3.40;;;;;;;23.57;42.45;92900.97;5030265;28;20558;-67
2021/07/17 07:13:16;;;;;;;4.88;3.30;;;;;;;23.50;44.18;92888.06;5030159;28;20036;-67
2021/07/17 07:15:42;;;;;;;6.22;3.33;;;;;;;23.67;42.04;92898.53;5030050;28;20022;-65
2021/07/17 07:18:07;;;;;;;3.65;3.17;;;;;;;23.77;41.97;92898.91;5031393;28;20100;-66
2021/07/17 07:20:33;;;;;;;7.57;3.13;;;;;;;23.93;41.72;92899.50;5031361;28;20100;-64
2021/07/17 07:22:59;;;;;;;6.38;2.88;;;;;;;24.05;39.83;92897.13;5030935;28;20120;-60
2021/07/17 07:25:25;;;;;;;3.90;3.05;;;;;;;24.03;40.36;92900.59;5030803;28;20036;-60
2021/07/17 07:27:50;;;;;;;6.75;3.22;;;;;;;24.10;40.77;92898.72;5030961;28;20029;-65
2021/07/17 07:30:16;;;;;;;7.53;3.28;;;;;;;24.25;42.02;92900.66;5029849;28;20061;-64
2021/07/17 07:32:41;;;;;;;6.32;2.50;;;;;;;24.48;38.70;92899.31;5028772;28;20036;-61
2021/07/17 07:35:08;;;;;;;3.83;3.03;;;;;;;24.62;38.54;92897.69;5029143;28;20413;-62
2021/07/17 07:37:33;;;;;;;6.38;3.03;;;;;;;24.74;38.26;92894.56;5029023;28;20025;-65
2021/07/17 07:39:59;;;;;;;4.50;2.90;;;;;;;24.96;38.73;92900.22;5029061;28;20017;-60
2021/07/17 07:42:26;;;;;;;4.10;3.38;;;;;;;25.06;38.64;92900.56;5029956;28;20048;-62
2021/07/17 07:44:51;;;;;;;3.10;2.70;;;;;;;25.16;37.83;92904.44;5029863;28;20021;-59
2021/07/17 07:47:18;;;;;;;6.95;3.60;;;;;;;25.37;36.79;92897.28;5029342;28;20036;-60
2021/07/17 07:49:43;;;;;;;5.15;2.83;;;;;;;25.58;36.98;92882.38;5029028;28;20087;-60
2021/07/17 07:52:10;;;;;;;7.65;3.08;;;;;;;25.86;38.50;92893.81;5029593;28;20457;-60
2021/07/17 07:54:36;;;;;;;7.78;3.45;;;;;;;26.24;39.15;92892.09;5028045;28;20138;-62
2021/07/17 07:57:02;;;;;;;6.97;3.05;;;;;;;26.68;36.86;92898.19;5027397;28;20025;-61
2021/07/17 07:59:27;;;;;;;10.70;2.88;;;;;;;26.97;35.88;92898.25;5026747;28;20441;-61
2021/07/17 08:01:53;;;;;;;4.80;3.67;;;;;;;27.23;34.26;92903.09;5027759;28;20024;-62
2021/07/17 08:04:18;;;;;;;11.15;3.20;;;;;;;27.37;34.55;92901.38;5026673;28;20031;-63
2021/07/17 08:06:43;;;;;;;4.03;2.60;;;;;;;27.61;34.57;92898.34;5028002;28;20021;-65
2021/07/17 08:09:09;;;;;;;3.67;2.70;;;;;;;28.00;33.06;92894.97;5027703;28;20017;-65
2021/07/17 08:11:34;;;;;;;15.05;2.50;;;;;;;27.67;33.00;92898.47;5029571;28;20021;-59
2021/07/17 08:14:00;;;;;;;6.82;3.17;;;;;;;27.31;33.64;92898.34;5029188;28;20061;-66
2021/07/17 08:16:25;;;;;;;7.15;3.13;;;;;;;27.20;34.24;92893.13;5028127;28;20078;-65
2021/07/17 08:18:51;;;;;;;6.40;3.00;;;;;;;27.46;35.13;92908.63;5028172;28;20120;-63
2021/07/17 08:21:16;;;;;;;5.35;2.70;;;;;;;27.74;32.70;92883.03;5028257;28;20025;-64
2021/07/17 08:23:44;;;;;;;5.57;2.70;;;;;;;27.90;32.98;92899.66;5028378;28;20056;-61
2021/07/17 08:26:09;;;;;;;12.23;2.75;;;;;;;28.05;32.30;92890.06;5028876;28;20509;-60
2021/07/17 08:28:34;;;;;;;3.97;2.88;;;;;;;28.25;31.72;92894.03;5029289;28;20037;-64
2021/07/17 08:31:00;;;;;;;3.58;2.72;;;;;;;28.68;32.03;92892.00;5029806;28;20029;-64
2021/07/17 08:33:25;;;;;;;6.90;2.50;;;;;;;29.14;31.83;92887.13;5029693;28;20040;-65
2021/07/17 08:35:51;;;;;;;8.70;3.10;;;;;;;29.61;34.63;92886.44;5029645;28;20025;-65
2021/07/17 08:38:16;;;;;;;5.07;2.42;;;;;;;30.27;32.37;92883.06;5029662;28;20021;-66
2021/07/17 08:40:48;;;;;;;4.72;2.53;;;;;;;30.21;29.39;92874.47;5029493;28;20036;-66
2021/07/17 08:43:13;;;;;;;11.13;3.03;;;;;;;30.54;29.38;92893.38;5028774;28;20414;-68
2021/07/17 08:45:39;;;;;;;5.50;2.28;;;;;;;30.51;28.40;92874.84;5029565;28;20025;-66
2021/07/17 08:48:09;;;;;;;14.43;3.20;;;;;;;30.83;28.94;92860.91;5028335;28;20029;-68
2021/07/17 08:50:35;;;;;;;7.45;2.63;;;;;;;30.85;27.43;92858.06;5029880;28;20502;-68
2021/07/17 08:53:01;;;;;;;4.95;2.58;;;;;;;30.90;28.50;92875.97;5028638;28;20013;-68
2021/07/17 08:55:27;;;;;;;5.78;2.60;;;;;;;31.00;27.61;92870.34;5028262;28;20391;-67
2021/07/17 08:57:53;;;;;;;9.77;3.10;;;;;;;31.15;30.81;92864.06;5029838;28;20116;-65
2021/07/17 09:00:31;;;;;;;4.13;2.55;;;;;;;31.52;28.83;92867.91;5029455;28;20032;-63
2021/07/17 09:03:01;;;;;;;9.10;2.80;;;;;;;31.49;26.94;92865.75;5029420;28;20494;-69
2021/07/17 09:05:30;;;;;;;8.52;2.80;;;;;;;31.23;27.70;92863.41;5029593;28;20145;-67
2021/07/17 09:07:56;;;;;;;4.72;2.40;;;;;;;30.94;27.46;92856.03;5029605;28;20330;-64
2021/07/17 09:10:36;;;;;;;5.00;2.30;;;;;;;31.14;27.15;92862.63;5029375;28;20033;-68
2021/07/17 09:13:12;;;;;;;10.07;4.20;;;;;;;31.40;27.16;92859.25;5029679;28;20030;-68
2021/07/17 09:15:41;;;;;;;18.33;13.57;;;;;;;31.55;27.88;92857.25;5028897;28;20041;-68
2021/07/17 09:18:08;;;;;;;11.23;7.22;;;;;;;31.92;25.17;92850.31;5029537;28;20048;-63
2021/07/17 09:20:34;;;;;;;15.15;9.18;;;;;;;31.90;26.13;92847.47;5029242;28;20030;-65
2021/07/17 09:23:02;;;;;;;20.02;12.43;;;;;;;31.98;26.43;92851.09;5027891;28;20069;-67
2021/07/17 09:25:41;;;;;;;6.17;2.40;;;;;;;31.78;27.31;92841.66;5029358;28;20036;-68
2021/07/17 09:28:19;;;;;;;3.75;2.40;;;;;;;32.03;26.12;92843.25;5029327;28;20044;-63
2021/07/17 09:30:46;;;;;;;48.97;29.10;;;;;;;32.44;27.14;92849.84;5028174;28;20039;-63
2021/07/17 09:33:11;;;;;;;21.42;16.75;;;;;;;33.03;25.49;92845.00;5027977;28;20206;-63
2021/07/17 09:35:39;;;;;;;7.70;3.13;;;;;;;32.99;26.11;92842.09;5027666;28;20036;-63
2021/07/17 09:38:05;;;;;;;13.25;7.07;;;;;;;33.18;25.63;92846.44;5023106;28;20022;-61
2021/07/17 09:40:54;;;;;;;5.03;2.50;;;;;;;33.53;24.13;92839.25;5024503;28;20115;-63
2021/07/17 09:43:42;;;;;;;6.28;2.80;;;;;;;33.69;23.21;92841.38;5022860;28;20041;-69
2021/07/17 09:46:21;;;;;;;2.78;2.50;;;;;;;34.21;23.58;92836.25;5022511;28;20437;-65
2021/07/17 09:48:52;;;;;;;18.25;3.10;;;;;;;34.96;24.10;92830.13;5022767;28;20041;-63
2021/07/17 09:51:19;;;;;;;11.07;4.55;;;;;;;35.44;22.32;92835.50;5024025;28;20040;-62
2021/07/17 09:54:05;;;;;;;6.93;3.13;;;;;;;36.21;21.77;92831.91;5028639;28;20087;-65
2021/07/17 09:56:35;;;;;;;10.13;3.13;;;;;;;36.79;21.12;92808.16;5028789;28;20038;-63
2021/07/17 09:59:03;;;;;;;8.05;2.58;;;;;;;36.99;18.99;92821.56;5030637;28;20031;-64
2021/07/17 10:01:39;;;;;;;15.68;4.15;;;;;;;37.15;19.29;92827.78;5031162;28;20512;-65
2021/07/17 10:04:08;;;;;;;5.25;2.15;;;;;;;37.04;20.93;92817.88;5029281;28;20522;-68
2021/07/17 10:06:35;;;;;;;;;;;;;;;36.68;18.93;92818.38;5032627;28;20088;-67
2021/07/17 10:09:06;;;;;;;5.45;2.42;;;;;;;37.24;19.07;92819.72;5029330;28;19912;-64
2021/07/17 10:11:32;;;;;;;4.55;2.50;;;;;;;37.83;18.17;92813.72;5031560;28;20033;-65
2021/07/17 10:13:58;;;;;;;10.45;2.63;;;;;;;38.50;20.01;92813.84;5031067;28;20478;-67
2021/07/17 10:16:26;;;;;;;3.80;1.83;;;;;;;39.54;18.58;92812.22;5031260;28;20029;-64
2021/07/17 10:18:54;;;;;;;3.75;2.13;;;;;;;38.64;16.88;92818.59;5031455;28;20037;-64
2021/07/17 10:21:21;;;;;;;9.30;2.47;;;;;;;39.13;17.32;92821.16;5028493;28;20025;-65
2021/07/17 10:23:46;;;;;;;5.03;2.85;;;;;;;39.05;18.55;92804.69;5030853;28;20608;-66
2021/07/17 10:26:12;;;;;;;5.20;1.98;;;;;;;38.59;16.42;92818.00;5031064;28;20021;-67
2021/07/17 10:28:38;;;;;;;5.57;2.38;;;;;;;38.13;18.03;92815.31;5030942;28;20017;-66
2021/07/17 10:31:05;;;;;;;2.00;1.90;;;;;;;37.69;19.15;92794.47;5031311;28;20112;-64
2021/07/17 10:33:31;;;;;;;6.43;2.53;;;;;;;38.81;17.34;92801.66;5032886;28;20025;-62
2021/07/17 10:36:03;;;;;;;12.23;2.42;;;;;;;37.05;19.29;92801.31;5030582;28;20030;-67
2021/07/17 10:38:29;;;;;;;2.50;1.98;;;;;;;35.37;19.51;92814.03;5031405;28;20029;-65
2021/07/17 10:40:55;;;;;;;4.70;2.55;;;;;;;35.75;19.22;92799.34;5031032;28;20026;-66
2021/07/17 10:43:22;;;;;;;5.55;2.45;;;;;;;35.50;19.70;92792.41;5029949;28;20449;-67
2021/07/17 10:45:48;;;;;;;7.75;2.83;;;;;;;35.17;22.09;92774.03;5030030;28;20025;-66
2021/07/17 10:48:32;;;;;;;6.63;3.28;;;;;;;33.83;27.29;92779.06;5030513;28;20431;-63
2021/07/17 10:51:01;;;;;;;7.32;3.53;;;;;;;33.75;27.34;92799.13;5030748;28;20040;-66
2021/07/17 10:53:43;;;;;;;9.40;3.92;;;;;;;34.15;28.37;92790.44;5030888;28;20561;-66
2021/07/17 10:56:26;;;;;;;5.10;2.65;;;;;;;34.92;24.98;92784.97;5029236;28;20494;-65
2021/07/17 10:58:53;;;;;;;4.32;2.83;;;;;;;36.22;23.76;92793.06;5029781;28;20025;-63
2021/07/17 11:01:19;;;;;;;8.32;3.65;;;;;;;36.25;24.37;92795.19;5028732;28;20021;-63
2021/07/17 11:03:45;;;;;;;6.32;3.85;;;;;;;36.48;26.56;92793.47;5028752;28;20047;-68
2021/07/17 11:06:30;;;;;;;7.65;3.28;;;;;;;35.90;26.35;92785.53;5029779;28;20079;-66
2021/07/17 11:08:57;;;;;;;12.23;4.60;;;;;;;35.41;27.12;92779.53;5028833;28;20025;-67
2021/07/17 11:11:28;;;;;;;9.27;3.47;;;;;;;35.29;27.60;92788.28;5030720;28;20113;-63
2021/07/17 11:13:55;;;;;;;6.72;4.93;;;;;;;35.41;27.91;92785.28;5030588;28;20435;-66
2021/07/17 11:16:44;;;;;;;7.63;3.72;;;;;;;35.37;27.33;92784.63;5027436;28;20027;-65
2021/07/17 11:19:27;;;;;;;67.60;7.75;;;;;;;35.26;27.54;92783.28;5031246;28;20083;-64
2021/07/17 11:22:08;;;;;;;8.13;4.28;;;;;;;35.65;30.66;92779.31;5029833;28;20057;-68
2021/07/17 11:24:34;;;;;;;7.05;3.42;;;;;;;36.33;28.31;92760.59;5027288;28;20033;-67
2021/07/17 11:27:12;;;;;;;11.32;3.50;;;;;;;36.58;26.36;92766.03;5030452;28;20120;-64
2021/07/17 11:29:40;;;;;;;;;;;;;;;36.63;25.05;92765.22;5031792;28;20072;-60
2021/07/17 11:32:06;;;;;;;5.78;3.70;;;;;;;36.40;26.07;92764.09;5030842;28;20126;-58
2021/07/17 11:34:35;;;;;;;5.55;3.78;;;;;;;36.26;26.11;92764.97;5031200;28;20057;-58
2021/07/17 11:37:03;;;;;;;6.30;4.07;;;;;;;35.53;27.99;92756.50;5030609;28;20100;-59
2021/07/17 11:39:33;;;;;;;7.60;3.90;;;;;;;34.59;27.96;92754.41;5030732;28;20445;-61
2021/07/17 11:42:00;;;;;;;5.97;4.53;;;;;;;34.25;28.15;92747.41;5031199;28;20104;-60
2021/07/17 11:44:37;;;;;;;7.55;4.00;;;;;;;33.66;28.65;92742.63;5030792;28;20021;-60
2021/07/17 11:47:04;;;;;;;12.32;3.95;;;;;;;33.12;30.49;92743.44;5031139;28;20025;-61
2021/07/17 11:49:37;;;;;;;4.97;4.47;;;;;;;32.73;32.03;92729.13;5029896;28;20036;-61
2021/07/17 11:52:05;;;;;;;7.63;4.30;;;;;;;33.18;32.31;92729.13;5031176;28;20033;-62
2021/07/17 11:54:35;;;;;;;8.85;4.82;;;;;;;33.35;31.16;92731.22;5031096;28;20029;-59